Time;durP1;ratioP1;P1;durP2;ratioP2;P2;SDS_P1;SDS_P2;PMS_P1;PMS_P2;Temp;Humidity;BMP_temperature;BMP_pressure;BME280_temperature;BME280_humidity;BME280_pressure;Samples;Min_cycle;Max_cycle;Signal;HPM_P1;HPM_P2
2022/07/22 00:00:45;;;;;;;7.07;4.22;;;;;;;25.57;39.80;94715.81;4208133;28;20052;-53
2022/07/22 00:02:47;;;;;;;7.10;3.38;;;;;;;25.57;39.77;94713.91;4208203;28;20059;-53
2022/07/22 00:04:48;;;;;;;11.30;3.78;;;;;;;25.60;39.65;94705.38;4216690;28;20047;-53
2022/07/22 00:06:50;;;;;;;13.93;4.63;;;;;;;25.61;39.55;94707.00;4223871;28;20112;-53
2022/07/22 00:08:52;;;;;;;5.88;3.58;;;;;;;25.57;39.22;94705.88;4225074;28;20104;-52
2022/07/22 00:10:54;;;;;;;5.53;4.05;;;;;;;25.56;39.30;94709.63;4213594;28;20696;-53
2022/07/22 00:12:56;;;;;;;9.80;4.13;;;;;;;25.54;39.39;94707.19;4228496;28;20052;-54
2022/07/22 00:14:57;;;;;;;9.23;3.35;;;;;;;25.51;39.19;94707.72;4225080;28;20062;-54
2022/07/22 00:16:59;;;;;;;7.90;3.50;;;;;;;25.48;39.09;94712.75;4228005;27;20121;-54
2022/07/22 00:19:01;;;;;;;7.03;3.67;;;;;;;25.28;39.64;94718.72;4217994;28;20044;-55
2022/07/22 00:21:02;;;;;;;5.57;3.90;;;;;;;25.26;39.76;94718.16;4222463;27;20051;-54
2022/07/22 00:23:11;;;;;;;7.45;4.15;;;;;;;25.09;39.99;94726.22;4225632;27;20090;-53
2022/07/22 00:25:13;;;;;;;8.60;4.00;;;;;;;25.00;40.35;94714.31;4226461;28;20055;-55
2022/07/22 00:27:15;;;;;;;6.45;3.47;;;;;;;24.98;40.53;94721.81;4214195;28;20048;-51
2022/07/22 00:29:16;;;;;;;5.13;3.42;;;;;;;24.98;40.87;94719.13;4228443;28;20161;-52
2022/07/22 00:31:18;;;;;;;9.10;3.78;;;;;;;25.01;40.98;94718.59;4227253;28;20236;-54
2022/07/22 00:33:20;;;;;;;7.50;3.75;;;;;;;25.06;41.31;94726.69;4223750;28;20425;-53
2022/07/22 00:35:22;;;;;;;9.30;4.55;;;;;;;25.09;41.60;94720.88;4211341;28;20055;-53
2022/07/22 00:37:23;;;;;;;7.20;4.30;;;;;;;25.12;41.71;94721.19;4217194;28;20131;-53
2022/07/22 00:39:25;;;;;;;9.18;4.35;;;;;;;25.14;41.80;94727.09;4216197;28;20448;-55
2022/07/22 00:41:27;;;;;;;6.90;4.30;;;;;;;25.16;41.94;94731.41;4210451;28;20052;-55
2022/07/22 00:43:48;;;;;;;8.82;4.70;;;;;;;25.16;41.89;94729.53;4225013;27;20124;-51
2022/07/22 00:45:50;;;;;;;7.72;4.88;;;;;;;25.14;42.09;94732.47;4222018;28;20051;-54
2022/07/22 00:47:52;;;;;;;9.50;4.57;;;;;;;25.07;42.81;94731.03;4209967;28;20088;-53
2022/07/22 00:49:53;;;;;;;8.32;4.70;;;;;;;25.00;43.16;94730.41;4222861;28;20105;-53
2022/07/22 00:51:55;;;;;;;9.18;4.70;;;;;;;24.94;42.93;94724.16;4211511;28;20121;-55
2022/07/22 00:53:58;;;;;;;20.40;4.97;;;;;;;24.90;42.80;94726.50;4225084;28;20123;-52
2022/07/22 00:56:00;;;;;;;16.77;4.93;;;;;;;24.79;42.70;94726.63;4210936;28;20039;-53
2022/07/22 00:58:03;;;;;;;10.27;7.38;;;;;;;24.70;43.12;94728.94;4209050;28;20288;-52
2022/07/22 01:00:08;;;;;;;9.02;5.80;;;;;;;24.68;43.16;94733.72;4224191;28;20116;-53
2022/07/22 01:02:10;;;;;;;7.43;4.90;;;;;;;24.68;43.08;94726.50;4211877;28;20048;-52
2022/07/22 01:04:12;;;;;;;10.77;4.93;;;;;;;24.65;43.00;94718.13;4215432;28;20043;-53
2022/07/22 01:06:14;;;;;;;12.27;5.18;;;;;;;24.66;42.80;94715.22;4225886;28;20607;-52
2022/07/22 01:08:15;;;;;;;8.55;4.70;;;;;;;24.67;43.08;94719.53;4216917;28;20366;-52
2022/07/22 01:10:17;;;;;;;6.80;4.57;;;;;;;24.69;43.04;94720.09;4220753;28;20059;-52
2022/07/22 01:12:19;;;;;;;8.27;4.63;;;;;;;24.71;42.84;94725.19;4219861;28;20443;-53
2022/07/22 01:14:21;;;;;;;8.77;4.78;;;;;;;24.70;43.19;94718.22;4226713;28;20410;-53
2022/07/22 01:16:24;;;;;;;10.52;4.57;;;;;;;24.68;43.07;94723.81;4227641;28;20492;-56
2022/07/22 01:18:26;;;;;;;;;;;;;;;24.65;43.20;94720.81;4212453;28;20063;-54
2022/07/22 01:20:27;;;;;;;11.73;5.07;;;;;;;24.61;43.22;94720.50;4224727;28;20207;-55
2022/07/22 01:22:31;;;;;;;12.00;4.82;;;;;;;24.63;43.33;94720.22;4215588;28;20132;-53
2022/07/22 01:24:34;;;;;;;8.10;4.78;;;;;;;24.61;43.46;94727.72;4219593;28;20265;-54
2022/07/22 01:26:36;;;;;;;6.10;4.60;;;;;;;24.57;43.62;94732.75;4214312;28;20459;-52
2022/07/22 01:28:38;;;;;;;10.98;4.82;;;;;;;24.52;43.66;94728.16;4219439;28;20404;-55
2022/07/22 01:30:40;;;;;;;11.40;4.93;;;;;;;24.52;43.87;94722.78;4210524;28;20059;-56
2022/07/22 01:32:41;;;;;;;12.63;4.97;;;;;;;24.48;43.77;94729.69;4207540;28;20460;-54
2022/07/22 01:34:43;;;;;;;8.30;5.07;;;;;;;24.46;44.01;94723.72;4224108;28;20485;-53
2022/07/22 01:36:45;;;;;;;11.10;5.75;;;;;;;24.43;44.17;94731.44;4209190;28;20051;-54
2022/07/22 01:38:46;;;;;;;11.43;5.15;;;;;;;24.42;44.23;94722.59;4217491;28;20424;-53
2022/07/22 01:40:49;;;;;;;8.55;5.07;;;;;;;24.40;44.12;94721.22;4227310;28;20108;-56
2022/07/22 01:42:51;;;;;;;8.63;5.65;;;;;;;24.40;44.52;94730.06;4226835;28;20576;-55
2022/07/22 01:44:53;;;;;;;8.18;4.93;;;;;;;24.39;44.45;94730.31;4224474;28;20051;-55
2022/07/22 01:46:54;;;;;;;8.80;4.75;;;;;;;24.37;44.62;94724.38;4222286;28;20117;-54
2022/07/22 01:48:56;;;;;;;11.50;4.97;;;;;;;24.33;44.59;94729.44;4210364;28;20561;-55
2022/07/22 01:50:59;;;;;;;11.70;5.10;;;;;;;24.28;44.78;94727.47;4208221;28;20235;-54
2022/07/22 01:53:00;;;;;;;7.45;5.05;;;;;;;24.27;44.78;94728.53;4220462;28;20124;-53
2022/07/22 01:55:03;;;;;;;12.90;5.22;;;;;;;24.27;44.65;94741.09;4211238;28;20052;-57
2022/07/22 01:57:05;;;;;;;7.80;4.80;;;;;;;24.26;44.95;94728.75;4213393;28;20085;-54
2022/07/22 01:59:07;;;;;;;8.65;4.97;;;;;;;24.24;45.04;94726.34;4220127;28;20052;-57
2022/07/22 02:01:09;;;;;;;8.43;5.40;;;;;;;24.23;44.98;94732.75;4210294;28;20055;-54
2022/07/22 02:03:10;;;;;;;57.35;39.33;;;;;;;24.24;45.30;94733.53;4209284;28;20051;-53
2022/07/22 02:05:13;;;;;;;19.88;11.27;;;;;;;24.23;45.01;94735.41;4223718;28;20048;-55
2022/07/22 02:07:14;;;;;;;9.10;5.55;;;;;;;24.26;44.92;94729.59;4211116;28;20578;-54
2022/07/22 02:09:16;;;;;;;7.57;4.88;;;;;;;24.22;44.97;94735.66;4221191;28;20059;-52
2022/07/22 02:11:18;;;;;;;8.73;4.80;;;;;;;24.05;45.47;94741.81;4217415;28;20047;-55
2022/07/22 02:13:20;;;;;;;8.70;5.20;;;;;;;23.93;45.83;94738.41;4215616;28;20044;-53
2022/07/22 02:15:21;;;;;;;12.63;5.60;;;;;;;23.69;46.38;94743.03;4218027;28;20554;-53
2022/07/22 02:17:23;;;;;;;9.35;5.35;;;;;;;23.61;46.48;94743.41;4225426;28;20585;-53
2022/07/22 02:19:25;;;;;;;10.98;5.47;;;;;;;23.43;47.08;94739.88;4215400;28;20051;-52
2022/07/22 02:21:27;;;;;;;9.38;5.38;;;;;;;23.26;47.62;94749.72;4218401;28;20052;-52
2022/07/22 02:23:29;;;;;;;8.90;5.03;;;;;;;22.90;48.55;94743.59;4209010;28;20052;-55
2022/07/22 02:25:30;;;;;;;21.42;5.63;;;;;;;22.53;49.46;94751.06;4221310;28;20051;-55
2022/07/22 02:27:32;;;;;;;12.48;5.70;;;;;;;22.19;50.45;94756.91;4209627;28;20059;-53
2022/07/22 02:29:34;;;;;;;11.93;6.20;;;;;;;22.07;51.17;94748.09;4222096;28;20060;-54
2022/07/22 02:31:35;;;;;;;13.05;5.95;;;;;;;22.15;50.94;94749.59;4209361;28;20052;-55
2022/07/22 02:33:37;;;;;;;10.15;5.65;;;;;;;22.27;50.46;94753.13;4208777;28;20370;-55
2022/07/22 02:35:39;;;;;;;9.38;6.00;;;;;;;22.40;50.01;94744.88;4220678;28;20497;-54
2022/07/22 02:37:41;;;;;;;12.27;5.93;;;;;;;22.53;49.41;94743.84;4224346;28;20192;-55
2022/07/22 02:39:43;;;;;;;12.18;5.78;;;;;;;22.66;49.23;94748.16;4208417;28;20052;-56
2022/07/22 02:41:45;;;;;;;9.48;5.75;;;;;;;22.76;48.80;94740.38;4214054;28;20043;-57
2022/07/22 02:43:47;;;;;;;9.38;5.65;;;;;;;22.87;48.80;94744.88;4218494;28;20056;-55
2022/07/22 02:45:48;;;;;;;11.10;6.25;;;;;;;22.96;48.45;94739.97;4219560;28;20047;-54
2022/07/22 02:47:53;;;;;;;10.05;5.47;;;;;;;22.98;48.21;94745.09;4212509;28;20155;-53
2022/07/22 02:49:54;;;;;;;9.93;5.45;;;;;;;23.03;48.34;94738.00;4209979;28;20135;-54
2022/07/22 02:51:56;;;;;;;10.43;6.10;;;;;;;23.10;48.39;94744.06;4219632;28;20113;-55
2022/07/22 02:53:58;;;;;;;7.63;4.90;;;;;;;23.19;47.78;94744.50;4215666;28;20060;-56
2022/07/22 02:55:59;;;;;;;8.70;4.82;;;;;;;23.25;47.25;94740.88;4215739;28;20067;-54
2022/07/22 02:58:08;;;;;;;6.95;5.20;;;;;;;23.30;46.98;94742.84;4220207;28;20051;-53
2022/07/22 03:00:11;;;;;;;9.70;4.85;;;;;;;23.29;46.46;94736.66;4211670;28;20424;-51
2022/07/22 03:02:13;;;;;;;9.73;5.03;;;;;;;23.29;46.87;94739.34;4213151;28;20128;-54
2022/07/22 03:04:15;;;;;;;10.43;5.43;;;;;;;23.29;46.61;94734.00;4212678;28;20503;-53
2022/07/22 03:06:16;;;;;;;7.95;4.95;;;;;;;23.29;46.58;94741.19;4222067;28;20120;-53
2022/07/22 03:08:18;;;;;;;12.20;5.50;;;;;;;23.30;46.69;94742.84;4209780;28;20081;-53
2022/07/22 03:10:20;;;;;;;9.43;4.63;;;;;;;23.28;46.85;94740.41;4210045;28;20048;-56
2022/07/22 03:12:21;;;;;;;8.57;5.50;;;;;;;23.25;47.22;94740.88;4225965;28;20050;-53
2022/07/22 03:14:23;;;;;;;13.02;5.93;;;;;;;23.23;47.02;94736.78;4224764;28;20048;-54
2022/07/22 03:16:25;;;;;;;9.77;5.82;;;;;;;23.20;46.98;94737.28;4224986;28;20048;-52
2022/07/22 03:18:27;;;;;;;9.57;5.50;;;;;;;23.15;47.37;94745.22;4217903;28;20485;-52
2022/07/22 03:20:29;;;;;;;10.88;6.03;;;;;;;23.05;47.38;94740.44;4221447;28;20175;-52
2022/07/22 03:22:30;;;;;;;11.52;6.13;;;;;;;22.87;47.75;94741.41;4221626;28;20078;-53
2022/07/22 03:24:32;;;;;;;10.23;5.93;;;;;;;22.75;48.13;94740.59;4208323;28;20048;-48
2022/07/22 03:26:51;;;;;;;12.05;6.18;;;;;;;22.61;48.44;94738.16;4208872;28;20519;-50
2022/07/22 03:28:53;;;;;;;9.63;4.97;;;;;;;22.59;48.61;94739.44;4215930;28;20040;-52
2022/07/22 03:30:55;;;;;;;16.98;6.50;;;;;;;22.50;48.85;94747.00;4222824;28;20071;-54
2022/07/22 03:32:57;;;;;;;13.38;5.65;;;;;;;22.44;48.70;94743.38;4211033;28;20459;-55
2022/07/22 03:34:59;;;;;;;12.23;5.93;;;;;;;22.52;49.04;94746.75;4221033;28;20135;-51
2022/07/22 03:37:05;;;;;;;12.02;5.57;;;;;;;22.60;48.69;94743.72;4214786;28;20135;-51
2022/07/22 03:39:07;;;;;;;13.27;5.72;;;;;;;22.64;48.62;94745.69;4208523;28;20497;-53
2022/07/22 03:41:08;;;;;;;11.75;5.78;;;;;;;22.69;48.64;94750.34;4208097;28;20051;-53
2022/07/22 03:43:10;;;;;;;11.68;5.50;;;;;;;22.76;48.42;94750.22;4225423;28;20052;-55
2022/07/22 03:45:12;;;;;;;10.68;6.15;;;;;;;22.83;48.67;94753.59;4222977;28;20051;-53
2022/07/22 03:47:18;;;;;;;10.48;6.30;;;;;;;22.72;49.55;94749.88;4211821;28;20081;-52
2022/07/22 03:49:20;;;;;;;17.50;7.20;;;;;;;22.60;49.29;94755.22;4211662;28;20422;-51
2022/07/22 03:51:22;;;;;;;9.07;6.00;;;;;;;22.60;49.61;94751.75;4225320;28;20066;-52
2022/07/22 03:53:23;;;;;;;11.90;7.38;;;;;;;22.62;49.61;94765.66;4210961;28;20056;-52
2022/07/22 03:55:26;;;;;;;11.95;6.30;;;;;;;22.62;49.61;94763.00;4213322;28;20073;-52
2022/07/22 03:57:29;;;;;;;11.05;6.68;;;;;;;22.45;50.27;94763.69;4211431;28;20486;-52
2022/07/22 03:59:30;;;;;;;14.27;6.55;;;;;;;22.45;50.09;94763.69;4211990;28;20067;-52
2022/07/22 04:01:32;;;;;;;10.80;6.90;;;;;;;22.38;50.45;94773.66;4211340;28;20044;-50
2022/07/22 04:03:34;;;;;;;10.10;6.35;;;;;;;22.42;50.21;94771.34;4213940;28;20466;-52
2022/07/22 04:05:35;;;;;;;11.15;6.93;;;;;;;22.27;50.70;94763.78;4223009;28;20485;-51
2022/07/22 04:07:37;;;;;;;18.17;6.78;;;;;;;22.02;51.43;94774.63;4210061;28;20056;-50
2022/07/22 04:09:39;;;;;;;12.02;7.35;;;;;;;22.08;50.90;94763.03;4211131;28;20116;-52
2022/07/22 04:11:40;;;;;;;12.20;7.07;;;;;;;22.14;50.63;94770.13;4212034;28;20048;-52
2022/07/22 04:13:42;;;;;;;9.05;6.32;;;;;;;22.24;50.48;94766.91;4213104;28;20603;-53
2022/07/22 04:15:44;;;;;;;8.05;6.38;;;;;;;22.29;50.02;94780.41;4228488;28;20101;-54
2022/07/22 04:17:45;;;;;;;13.25;6.82;;;;;;;22.37;49.79;94780.06;4226967;28;20200;-51
2022/07/22 04:19:47;;;;;;;11.80;6.93;;;;;;;22.37;49.62;94777.41;4227557;28;20105;-53
2022/07/22 04:21:49;;;;;;;11.50;6.57;;;;;;;22.14;49.80;94777.31;4215977;28;20061;-53
2022/07/22 04:23:50;;;;;;;8.55;5.85;;;;;;;22.15;49.88;94770.94;4224627;28;20051;-55
2022/07/22 04:25:52;;;;;;;14.02;6.25;;;;;;;22.24;49.63;94777.59;4227457;28;20055;-54
2022/07/22 04:27:54;;;;;;;9.45;6.32;;;;;;;22.28;49.21;94781.41;4226437;28;20048;-56
2022/07/22 04:29:56;;;;;;;9.55;6.20;;;;;;;22.36;48.87;94781.09;4227797;28;20415;-51
2022/07/22 04:31:58;;;;;;;13.38;6.45;;;;;;;22.42;48.80;94787.38;4219309;28;20048;-54
2022/07/22 04:34:03;;;;;;;14.05;6.63;;;;;;;22.49;48.17;94786.19;4210902;28;20529;-55
2022/07/22 04:36:05;;;;;;;14.52;6.13;;;;;;;22.57;48.07;94789.59;4224460;28;20112;-54
2022/07/22 04:38:07;;;;;;;11.25;6.40;;;;;;;22.61;48.20;94786.22;4209967;28;20039;-54
2022/07/22 04:40:09;;;;;;;14.13;6.57;;;;;;;22.71;47.78;94785.63;4211116;28;20079;-52
2022/07/22 04:42:11;;;;;;;15.00;6.20;;;;;;;22.86;47.19;94787.84;4211415;28;20079;-55
2022/07/22 04:44:12;;;;;;;9.85;7.03;;;;;;;22.87;47.26;94792.94;4221956;28;20149;-52
2022/07/22 04:46:14;;;;;;;12.85;6.32;;;;;;;22.79;48.04;94792.50;4212960;28;20044;-52
2022/07/22 04:48:17;;;;;;;10.20;6.00;;;;;;;22.69;48.16;94798.41;4224915;28;21295;-54
2022/07/22 04:50:18;;;;;;;11.75;6.00;;;;;;;22.67;48.21;94798.66;4210701;28;20048;-52
2022/07/22 04:52:20;;;;;;;13.07;6.43;;;;;;;22.69;48.51;94801.91;4209606;28;20074;-52
2022/07/22 04:54:22;;;;;;;10.75;6.03;;;;;;;22.74;48.73;94797.72;4222186;28;20043;-53
2022/07/22 04:56:24;;;;;;;10.63;5.50;;;;;;;22.87;48.34;94797.50;4226422;28;20056;-53
2022/07/22 04:58:26;;;;;;;16.13;6.35;;;;;;;23.10;47.74;94792.16;4210753;28;20105;-52
2022/07/22 05:00:28;;;;;;;15.02;5.97;;;;;;;;;;4210791;28;20056;-54
2022/07/22 05:02:29;;;;;;;16.55;7.57;;;;;;;23.50;46.71;94801.22;4210305;28;20483;-54
2022/07/22 05:04:31;;;;;;;19.08;6.90;;;;;;;23.57;46.48;94798.41;4221395;28;20052;-54
2022/07/22 05:06:33;;;;;;;11.30;6.15;;;;;;;23.70;45.75;94804.31;4226030;28;20574;-54
2022/07/22 05:08:36;;;;;;;10.25;6.10;;;;;;;23.83;45.90;94805.94;4210314;28;20051;-54
2022/07/22 05:10:37;;;;;;;12.32;6.18;;;;;;;23.90;45.48;94800.44;4215592;28;20112;-51
2022/07/22 05:12:39;;;;;;;13.65;6.90;;;;;;;23.87;45.74;94812.41;4219755;28;20101;-54
2022/07/22 05:14:41;;;;;;;12.77;6.15;;;;;;;23.95;45.57;94807.72;4210278;28;20052;-52
2022/07/22 05:16:42;;;;;;;13.27;6.60;;;;;;;24.06;45.27;94810.34;4217570;28;20052;-53
2022/07/22 05:18:44;;;;;;;11.88;6.47;;;;;;;24.18;45.03;94804.94;4218638;28;20143;-53
2022/07/22 05:20:46;;;;;;;9.52;5.70;;;;;;;24.30;44.40;94802.19;4224585;28;20051;-54
2022/07/22 05:22:47;;;;;;;13.77;6.00;;;;;;;24.42;44.13;94808.28;4213433;28;20044;-55
2022/07/22 05:24:49;;;;;;;10.77;6.10;;;;;;;24.42;43.90;94812.84;4220378;28;20048;-54
2022/07/22 05:26:51;;;;;;;14.05;6.68;;;;;;;24.39;44.12;94805.28;4213111;28;20515;-52
2022/07/22 05:28:52;;;;;;;17.13;6.53;;;;;;;24.28;44.33;94807.78;4220619;28;20063;-53
2022/07/22 05:30:55;;;;;;;9.40;6.50;;;;;;;24.35;44.16;94812.16;4226525;28;20052;-52
2022/07/22 05:32:56;;;;;;;14.57;6.43;;;;;;;24.49;43.56;94818.88;4223641;28;20051;-55
2022/07/22 05:34:59;;;;;;;14.73;6.60;;;;;;;24.61;44.11;94810.72;4215611;28;20096;-53
2022/07/22 05:37:01;;;;;;;18.03;6.60;;;;;;;24.71;43.71;94811.69;4225544;28;20051;-53
2022/07/22 05:39:02;;;;;;;15.07;7.05;;;;;;;24.66;43.90;94814.31;4215870;28;20373;-56
2022/07/22 05:41:04;;;;;;;12.85;6.15;;;;;;;24.49;44.09;94814.31;4223575;28;20059;-55
2022/07/22 05:43:06;;;;;;;18.00;6.63;;;;;;;24.47;44.14;94812.91;4226623;28;20459;-55
2022/07/22 05:45:08;;;;;;;17.20;6.57;;;;;;;24.23;44.75;94814.91;4222677;28;20044;-53
2022/07/22 05:47:10;;;;;;;16.27;6.45;;;;;;;24.33;44.51;94815.09;4217496;28;20466;-54
2022/07/22 05:49:11;;;;;;;15.80;6.15;;;;;;;24.48;44.51;94818.06;4226124;28;20048;-54
2022/07/22 05:51:13;;;;;;;15.15;5.80;;;;;;;24.62;43.98;94820.41;4213497;28;20474;-55
2022/07/22 05:53:15;;;;;;;17.73;6.97;;;;;;;24.82;43.78;94811.88;4207265;28;20105;-56
2022/07/22 05:55:17;;;;;;;16.08;7.65;;;;;;;24.82;44.01;94804.63;4214261;28;20047;-55
2022/07/22 05:57:19;;;;;;;12.45;6.97;;;;;;;24.98;43.65;94812.91;4219202;28;20040;-55
2022/07/22 05:59:20;;;;;;;20.30;7.32;;;;;;;24.85;44.00;94804.16;4209178;28;20078;-53
2022/07/22 06:01:22;;;;;;;17.23;7.35;;;;;;;24.72;44.32;94809.84;4222830;28;20080;-54
2022/07/22 06:03:24;;;;;;;17.98;7.60;;;;;;;24.56;44.33;94802.63;4210992;28;20063;-53
2022/07/22 06:05:26;;;;;;;17.13;7.40;;;;;;;24.45;44.93;94810.47;4221932;28;20044;-54
2022/07/22 06:07:38;;;;;;;13.68;6.80;;;;;;;24.63;44.72;94820.16;4208686;28;20055;-52
2022/07/22 06:09:39;;;;;;;17.50;7.35;;;;;;;24.71;45.15;94810.91;4209854;28;20059;-54
2022/07/22 06:11:41;;;;;;;14.63;7.00;;;;;;;24.87;44.73;94810.09;4222649;28;20073;-55
2022/07/22 06:13:43;;;;;;;14.07;6.50;;;;;;;24.86;44.50;94810.31;4226017;28;20081;-54
2022/07/22 06:15:44;;;;;;;14.05;7.32;;;;;;;24.94;44.47;94817.94;4226375;28;20043;-54
2022/07/22 06:17:46;;;;;;;17.25;7.40;;;;;;;24.85;44.86;94809.50;4224539;28;20055;-55
2022/07/22 06:19:48;;;;;;;13.13;6.72;;;;;;;25.02;44.50;94803.31;4226619;28;20055;-54
2022/07/22 06:21:50;;;;;;;22.15;7.10;;;;;;;25.17;44.22;94808.91;4214263;28;20062;-58
2022/07/22 06:23:52;;;;;;;12.63;5.83;;;;;;;25.30;43.97;94808.56;4217623;28;20097;-53
2022/07/22 06:25:54;;;;;;;13.35;6.45;;;;;;;25.29;43.73;94801.56;4222641;28;20096;-52
2022/07/22 06:27:56;;;;;;;12.27;5.63;;;;;;;25.37;43.81;94802.22;4210816;28;20059;-53
2022/07/22 06:29:57;;;;;;;15.07;6.93;;;;;;;25.56;43.47;94806.19;4225411;28;20048;-53
2022/07/22 06:31:59;;;;;;;9.65;5.68;;;;;;;25.77;42.67;94803.72;4216749;28;20547;-53
2022/07/22 06:34:05;;;;;;;17.02;6.72;;;;;;;25.82;42.70;94809.19;4208835;28;20113;-54
2022/07/22 06:36:07;;;;;;;9.20;5.28;;;;;;;25.86;42.45;94807.59;4223232;28;20190;-54
2022/07/22 06:38:09;;;;;;;14.38;5.75;;;;;;;26.04;42.42;94809.97;4210947;28;20051;-52
2022/07/22 06:40:27;;;;;;;12.15;5.57;;;;;;;26.11;42.11;94807.91;4225959;28;20049;-53
2022/07/22 06:42:29;;;;;;;9.00;5.70;;;;;;;26.13;41.68;94808.44;4214849;28;20111;-51
2022/07/22 06:44:31;;;;;;;12.20;6.35;;;;;;;26.00;42.08;94810.72;4208859;28;20130;-53
2022/07/22 06:46:32;;;;;;;13.77;5.88;;;;;;;25.99;42.61;94811.81;4208129;28;20397;-52
2022/07/22 06:48:34;;;;;;;14.07;5.95;;;;;;;26.12;41.94;94806.81;4214643;28;20466;-51
2022/07/22 06:50:36;;;;;;;17.23;6.05;;;;;;;26.34;41.74;94811.31;4217366;28;20052;-54
2022/07/22 06:52:39;;;;;;;9.35;5.68;;;;;;;26.21;41.26;94817.13;4206331;28;20078;-54
2022/07/22 06:54:41;;;;;;;11.18;5.57;;;;;;;26.22;41.48;94808.81;4221903;28;20059;-53
2022/07/22 06:56:42;;;;;;;18.05;6.63;;;;;;;26.37;41.65;94808.13;4210217;28;20040;-55
2022/07/22 06:58:44;;;;;;;13.52;5.70;;;;;;;26.31;40.94;94803.78;4221028;27;20048;-54
2022/07/22 07:00:46;;;;;;;16.25;5.75;;;;;;;26.21;40.94;94812.53;4208090;28;20085;-55
2022/07/22 07:02:48;;;;;;;10.77;5.43;;;;;;;26.33;40.76;94809.72;4219610;28;20051;-54
2022/07/22 07:04:49;;;;;;;11.63;5.68;;;;;;;26.53;40.68;94804.50;4224924;28;20469;-52
2022/07/22 07:06:51;;;;;;;16.55;5.22;;;;;;;26.57;39.77;94809.41;4209757;28;20086;-52
2022/07/22 07:08:53;;;;;;;12.10;5.95;;;;;;;26.65;39.61;94816.97;4220275;28;20120;-53
2022/07/22 07:10:55;;;;;;;15.68;5.20;;;;;;;26.80;39.41;94813.59;4216291;28;20154;-55
2022/07/22 07:12:58;;;;;;;10.65;4.68;;;;;;;26.81;39.56;94815.22;4224910;28;20059;-52
2022/07/22 07:15:00;;;;;;;16.05;5.25;;;;;;;26.84;39.34;94822.75;4225831;28;20043;-52
2022/07/22 07:17:21;;;;;;;8.82;4.90;;;;;;;26.86;39.16;94823.31;4224415;28;20079;-55
2022/07/22 07:19:23;;;;;;;13.18;5.65;;;;;;;26.82;39.69;94814.16;4215442;28;20130;-55
2022/07/22 07:21:25;;;;;;;8.73;4.97;;;;;;;26.82;39.38;94820.31;4217886;28;20116;-57
2022/07/22 07:23:27;;;;;;;12.43;4.60;;;;;;;26.58;39.86;94816.38;4217494;28;20056;-53
2022/07/22 07:25:29;;;;;;;12.35;4.78;;;;;;;26.85;39.53;94819.81;4225126;28;20051;-52
2022/07/22 07:27:31;;;;;;;12.35;4.65;;;;;;;27.00;39.31;94821.00;4209741;28;20058;-50
2022/07/22 07:29:33;;;;;;;9.20;4.95;;;;;;;27.23;39.16;94817.13;4220837;28;20468;-55
2022/07/22 07:31:35;;;;;;;18.63;7.10;;;;;;;27.37;38.71;94816.41;4213942;28;20185;-54
2022/07/22 07:33:37;;;;;;;15.55;6.22;;;;;;;27.15;38.89;94816.53;4217005;28;20049;-51
2022/07/22 07:35:38;;;;;;;9.57;5.82;;;;;;;27.15;38.88;94810.34;4210527;28;20052;-54
2022/07/22 07:37:40;;;;;;;10.38;5.15;;;;;;;27.36;38.89;94814.78;4207237;28;20055;-52
2022/07/22 07:39:42;;;;;;;13.73;5.88;;;;;;;27.47;38.15;94812.97;4209342;28;20093;-56
2022/07/22 07:41:44;;;;;;;10.27;5.55;;;;;;;27.72;38.11;94812.22;4225159;28;20094;-54
2022/07/22 07:43:51;;;;;;;7.97;4.63;;;;;;;27.95;37.71;94808.31;4224796;28;20096;-52
2022/07/22 07:45:52;;;;;;;6.82;4.40;;;;;;;28.14;37.04;94811.31;4214940;28;20482;-57
2022/07/22 07:47:54;;;;;;;8.48;4.47;;;;;;;28.28;36.88;94814.28;4222199;28;20668;-54
2022/07/22 07:49:59;;;;;;;20.80;5.25;;;;;;;28.44;36.94;94819.69;4208802;28;20044;-54
2022/07/22 07:52:01;;;;;;;11.15;5.00;;;;;;;28.62;36.62;94813.00;4206008;28;20052;-54
2022/07/22 07:54:03;;;;;;;11.48;5.72;;;;;;;28.64;35.82;94817.03;4208786;28;20067;-55
2022/07/22 07:56:05;;;;;;;12.90;5.10;;;;;;;28.67;35.44;94818.38;4206766;28;20058;-58
2022/07/22 07:58:07;;;;;;;13.00;5.47;;;;;;;28.75;35.25;94818.66;4207679;28;20109;-56
2022/07/22 08:00:10;;;;;;;11.00;4.47;;;;;;;28.77;34.21;94818.38;4207313;28;20052;-55
2022/07/22 08:02:12;;;;;;;;;;;;;;;28.76;34.55;94822.16;4208612;28;20044;-54
2022/07/22 08:04:14;;;;;;;9.63;4.70;;;;;;;28.77;34.66;94819.19;4207838;28;19975;-60
2022/07/22 08:06:36;;;;;;;9.95;4.05;;;;;;;28.69;34.54;94816.22;4221056;28;20486;-54
2022/07/22 08:08:38;;;;;;;7.10;4.20;;;;;;;28.86;34.84;94814.06;4224301;28;20069;-53
2022/07/22 08:10:39;;;;;;;8.65;4.53;;;;;;;28.99;33.92;94820.78;4224590;28;20143;-53
2022/07/22 08:13:00;;;;;;;7.65;3.78;;;;;;;29.17;33.57;94806.78;4225264;28;20134;-52
2022/07/22 08:15:03;;;;;;;8.85;4.13;;;;;;;28.98;33.05;94816.47;4216966;28;20488;-56
2022/07/22 08:17:05;;;;;;;10.23;3.97;;;;;;;28.87;33.71;94812.19;4224391;28;20489;-58
2022/07/22 08:19:09;;;;;;;12.35;4.40;;;;;;;29.04;33.94;94810.00;4214591;28;20070;-57
2022/07/22 08:21:11;;;;;;;10.00;4.55;;;;;;;29.17;33.52;94820.25;4220185;28;20043;-58
2022/07/22 08:23:13;;;;;;;9.73;4.63;;;;;;;29.34;32.83;94808.31;4215230;28;20052;-56
2022/07/22 08:25:15;;;;;;;8.50;3.75;;;;;;;29.42;32.50;94812.38;4224966;28;20505;-58
2022/07/22 08:27:16;;;;;;;6.47;3.97;;;;;;;29.55;32.24;94822.56;4211852;28;20467;-55
2022/07/22 08:29:18;;;;;;;6.57;3.45;;;;;;;29.67;32.01;94812.28;4220186;28;20055;-55
2022/07/22 08:31:20;;;;;;;8.35;3.67;;;;;;;29.84;31.80;94824.66;4226539;28;20063;-54
2022/07/22 08:33:22;;;;;;;10.85;3.90;;;;;;;29.88;31.16;94821.13;4221112;28;20062;-55
2022/07/22 08:35:23;;;;;;;6.53;3.50;;;;;;;29.96;30.69;94819.72;4211068;28;20051;-56
2022/07/22 08:37:25;;;;;;;4.82;3.65;;;;;;;30.04;30.58;94815.63;4208825;28;20108;-56
2022/07/22 08:39:27;;;;;;;9.10;4.03;;;;;;;30.16;30.66;94816.91;4225351;28;20338;-54
2022/07/22 08:41:34;;;;;;;5.50;3.33;;;;;;;30.19;30.54;94815.53;4226955;28;20432;-55
2022/07/22 08:43:41;;;;;;;8.75;3.40;;;;;;;30.29;30.40;94817.41;4226816;28;20055;-54
2022/07/22 08:45:43;;;;;;;7.32;3.92;;;;;;;30.42;30.34;94814.88;4218108;28;20051;-57
2022/07/22 08:47:46;;;;;;;14.05;4.13;;;;;;;30.58;30.43;94817.47;4221683;28;20153;-56
2022/07/22 08:49:49;;;;;;;8.05;4.00;;;;;;;30.65;30.07;94822.53;4212075;28;20048;-55
2022/07/22 08:51:51;;;;;;;4.83;3.17;;;;;;;30.68;30.10;94820.09;4221226;28;20047;-57
2022/07/22 08:53:54;;;;;;;8.60;3.55;;;;;;;30.75;30.24;94825.19;4210736;28;20335;-54
2022/07/22 08:55:56;;;;;;;;;;;;;;;30.80;30.18;94817.84;4222057;28;20059;-54
2022/07/22 08:57:57;;;;;;;6.78;4.03;;;;;;;30.83;30.07;94813.75;4213746;28;20324;-55
2022/07/22 09:00:00;;;;;;;9.70;5.75;;;;;;;30.91;30.53;94818.59;4226967;28;20081;-57
2022/07/22 09:02:07;;;;;;;12.50;4.30;;;;;;;30.65;30.50;94823.34;4216995;28;20055;-55
2022/07/22 09:04:09;;;;;;;5.40;3.67;;;;;;;30.64;30.45;94821.75;4209176;28;20047;-57
2022/07/22 09:06:11;;;;;;;6.97;3.90;;;;;;;30.46;30.73;94836.75;4220508;28;20127;-57
2022/07/22 09:08:13;;;;;;;11.05;4.18;;;;;;;30.38;30.65;94821.94;4212692;28;20137;-55
2022/07/22 09:10:17;;;;;;;5.60;4.25;;;;;;;30.34;30.86;94822.78;4210635;28;20048;-55
2022/07/22 09:12:19;;;;;;;12.70;4.28;;;;;;;30.60;30.79;94826.09;4211035;28;20147;-56
2022/07/22 09:14:21;;;;;;;7.10;3.78;;;;;;;30.81;30.46;94824.03;4217630;28;20097;-55
2022/07/22 09:16:43;;;;;;;10.50;4.25;;;;;;;30.99;30.79;94817.94;4226687;28;20120;-54
2022/07/22 09:18:49;;;;;;;6.95;4.00;;;;;;;31.14;30.24;94817.00;4218913;28;20097;-55
2022/07/22 09:20:58;;;;;;;6.40;4.03;;;;;;;31.18;29.94;94819.94;4226096;28;20059;-57
2022/07/22 09:22:59;;;;;;;11.15;4.05;;;;;;;31.10;28.98;94823.25;4213645;28;20048;-55
2022/07/22 09:25:37;;;;;;;11.00;3.83;;;;;;;30.86;29.47;94829.44;4219460;28;20128;-54
2022/07/22 09:27:38;;;;;;;8.25;3.80;;;;;;;31.07;29.46;94813.03;4203967;28;20048;-55
2022/07/22 09:29:49;;;;;;;6.15;4.35;;;;;;;31.07;29.31;94819.25;4206671;28;20062;-57
2022/07/22 09:31:52;;;;;;;10.20;3.72;;;;;;;31.19;28.75;94818.84;4219392;28;20078;-55
2022/07/22 09:33:55;;;;;;;7.95;3.97;;;;;;;30.86;28.78;94813.19;4221407;28;20413;-56